Time;durP1;ratioP1;P1;durP2;ratioP2;P2;SDS_P1;SDS_P2;PMS_P1;PMS_P2;Temp;Humidity;BMP_temperature;BMP_pressure;BME280_temperature;BME280_humidity;BME280_pressure;Samples;Min_cycle;Max_cycle;Signal;HPM_P1;HPM_P2
2021/12/16 00:09:00;;;;;;;20.98;15.52;;;;;;;8.62;100.00;103360.00;4975649;28;20038;-47
2021/12/16 00:19:37;;;;;;;;;;;;;;;;;;;;;
2021/12/16 00:20:13;;;;;;;;;;;;;;;;;;;;;
2021/12/16 00:31:02;;;;;;;22.50;16.80;;;;;;;8.40;100.00;103369.56;4975134;28;20049;-46
2021/12/16 00:35:36;;;;;;;28.67;17.40;;;;;;;8.45;100.00;103370.63;4994530;28;20477;-49
2021/12/16 00:38:03;;;;;;;22.40;16.77;;;;;;;8.45;100.00;103380.16;4994506;28;20034;-50
2021/12/16 00:40:28;;;;;;;20.90;16.25;;;;;;;8.49;100.00;103377.75;4994424;28;20022;-50
2021/12/16 00:42:59;;;;;;;24.33;15.40;;;;;;;8.45;100.00;103375.84;4994378;28;20056;-47
2021/12/16 00:48:04;;;;;;;28.10;15.63;;;;;;;8.45;100.00;103381.06;4994441;28;20035;-48
2021/12/16 00:55:54;;;;;;;31.95;18.10;;;;;;;8.46;100.00;103372.41;4976941;28;20134;-47
2021/12/16 00:58:26;;;;;;;24.48;16.70;;;;;;;8.44;100.00;103353.22;4977625;28;20062;-46
2021/12/16 01:01:02;;;;;;;25.80;15.93;;;;;;;8.54;100.00;103361.41;4979186;28;20084;-46
2021/12/16 01:03:40;;;;;;;23.83;14.85;;;;;;;8.53;100.00;103372.66;4978774;28;20026;-47
2021/12/16 01:50:06;;;;;;;32.90;15.20;;;;;;;8.56;100.00;103404.94;4978295;28;20039;-47
2021/12/16 01:55:23;;;;;;;20.77;14.55;;;;;;;8.57;100.00;103416.25;4977834;28;20038;-47
2021/12/16 01:57:54;;;;;;;32.88;15.82;;;;;;;8.59;100.00;103419.81;4978121;28;20038;-47
2021/12/16 02:00:52;;;;;;;30.20;15.65;;;;;;;8.62;100.00;103432.97;4977711;28;20029;-47
2021/12/16 02:03:24;;;;;;;25.40;15.55;;;;;;;8.54;100.00;103413.53;4978033;28;20089;-47
2021/12/16 02:08:31;;;;;;;21.17;12.00;;;;;;;8.63;100.00;103425.22;4997015;28;20035;-48
2021/12/16 02:11:21;;;;;;;20.73;14.85;;;;;;;8.61;100.00;103439.00;4996509;28;20031;-47
2021/12/16 02:27:42;;;;;;;;;;;;;;;;;;;;;
2021/12/16 02:33:08;;;;;;;23.08;14.73;;;;;;;8.67;100.00;103440.16;4997053;28;20040;-50
2021/12/16 02:35:41;;;;;;;22.98;13.93;;;;;;;8.66;100.00;103422.72;4988014;28;20018;-48
2021/12/16 02:38:07;;;;;;;20.02;13.60;;;;;;;8.66;100.00;103437.47;4977300;28;20086;-47
2021/12/16 02:40:35;;;;;;;24.88;13.90;;;;;;;8.68;100.00;103441.91;4986774;28;20026;-47
2021/12/16 02:48:34;;;;;;;19.83;13.98;;;;;;;8.72;100.00;103448.16;4977356;28;20109;-47
2021/12/16 02:51:15;;;;;;;42.60;12.80;;;;;;;8.71;100.00;103435.97;4988361;28;20030;-46
2021/12/16 02:53:45;;;;;;;20.55;14.10;;;;;;;8.73;100.00;103440.38;4996408;28;20047;-47
2021/12/16 02:56:11;;;;;;;17.02;12.20;;;;;;;8.76;100.00;103434.41;4982130;28;20027;-48
2021/12/16 02:58:41;;;;;;;20.05;12.85;;;;;;;8.75;100.00;103443.06;4976864;28;20466;-47
2021/12/16 03:01:15;;;;;;;16.55;12.95;;;;;;;8.79;100.00;103439.75;4976894;28;20023;-48
2021/12/16 03:03:41;;;;;;;14.63;11.93;;;;;;;8.74;100.00;103434.34;4976890;28;20029;-46
2021/12/16 03:06:08;;;;;;;18.75;11.88;;;;;;;8.78;100.00;103428.44;4988304;28;20026;-47
2021/12/16 03:08:34;;;;;;;18.77;12.93;;;;;;;8.80;100.00;103437.19;4996198;28;20030;-46
2021/12/16 03:19:23;;;;;;;;;;;;;;;;;;;;;
2021/12/16 03:21:46;;;;;;;16.42;13.02;;;;;;;8.75;100.00;103440.47;4963811;28;20054;-47
2021/12/16 03:32:22;;;;;;;;;;;;;;;;;;;;;
2021/12/16 03:34:58;;;;;;;22.73;12.05;;;;;;;8.78;100.00;103443.19;4976267;28;20454;-47
2021/12/16 03:37:24;;;;;;;15.70;10.45;;;;;;;8.80;100.00;103446.72;4976125;28;20466;-46
2021/12/16 03:39:57;;;;;;;17.90;11.40;;;;;;;8.78;100.00;103437.97;4976040;28;20085;-47
2021/12/16 03:42:31;;;;;;;19.08;12.13;;;;;;;8.84;100.00;103443.41;4976084;28;20443;-47
2021/12/16 03:45:05;;;;;;;18.27;12.35;;;;;;;8.79;100.00;103444.97;4976811;28;20027;-49
2021/12/16 03:47:44;;;;;;;19.25;11.55;;;;;;;8.79;100.00;103444.97;4995358;28;20510;-48
2021/12/16 03:50:15;;;;;;;21.47;12.87;;;;;;;8.80;100.00;103441.50;4995223;28;20564;-47
2021/12/16 03:52:41;;;;;;;19.20;11.80;;;;;;;8.79;100.00;103445.88;4995365;28;20505;-46
2021/12/16 03:55:08;;;;;;;18.98;11.50;;;;;;;8.80;100.00;103446.72;4994980;28;20111;-48
2021/12/16 03:57:34;;;;;;;20.52;12.45;;;;;;;8.79;100.00;103455.41;4995195;28;20033;-47
2021/12/16 04:00:01;;;;;;;22.77;12.38;;;;;;;8.79;100.00;103444.97;4995012;28;20669;-49
2021/12/16 04:02:32;;;;;;;18.30;12.48;;;;;;;8.79;100.00;103445.88;4995011;28;20033;-48
2021/12/16 04:04:58;;;;;;;;;;;;;;;8.82;100.00;103456.41;4993307;28;20500;-48
2021/12/16 04:07:26;;;;;;;20.92;10.93;;;;;;;8.84;100.00;103453.84;4975668;28;19992;-48
2021/12/16 04:09:52;;;;;;;20.25;12.02;;;;;;;8.86;100.00;103454.81;4975585;28;20033;-47
2021/12/16 04:12:20;;;;;;;22.58;12.05;;;;;;;8.93;100.00;103451.63;4975404;28;20031;-47
2021/12/16 04:14:51;;;;;;;19.05;9.60;;;;;;;8.89;100.00;103455.81;4975533;28;20553;-46
2021/12/16 04:17:21;;;;;;;15.05;10.98;;;;;;;8.91;100.00;103456.78;4994231;28;20022;-48
2021/12/16 04:19:48;;;;;;;22.27;11.48;;;;;;;8.97;100.00;103443.09;4994862;28;20034;-47
2021/12/16 04:22:31;;;;;;;17.13;11.20;;;;;;;8.96;100.00;103450.00;4994885;28;20054;-47
2021/12/16 04:25:01;;;;;;;20.85;12.98;;;;;;;8.89;100.00;103452.31;4994409;28;20026;-48
2021/12/16 04:27:27;;;;;;;24.50;10.98;;;;;;;8.84;100.00;103464.28;4994820;28;20025;-46
2021/12/16 04:29:53;;;;;;;22.48;11.52;;;;;;;8.80;100.00;103463.25;4994313;28;20054;-49
2021/12/16 04:32:18;;;;;;;12.60;9.65;;;;;;;8.81;100.00;103458.94;4992842;28;20464;-47
2021/12/16 04:34:44;;;;;;;18.50;10.57;;;;;;;8.83;100.00;103462.53;4994611;28;20093;-47
2021/12/16 04:37:10;;;;;;;15.07;10.98;;;;;;;8.85;100.00;103460.84;4976898;28;20031;-47
2021/12/16 04:39:38;;;;;;;19.83;11.95;;;;;;;8.89;100.00;103460.13;4975135;28;20029;-47
2021/12/16 04:42:05;;;;;;;12.23;9.23;;;;;;;8.88;100.00;103455.75;4975049;28;20027;-50
2021/12/16 04:44:32;;;;;;;20.70;10.57;;;;;;;8.92;100.00;103465.47;4975232;28;20469;-47
2021/12/16 04:47:01;;;;;;;13.80;8.30;;;;;;;8.83;100.00;103458.19;4990483;28;20033;-46
2021/12/16 04:49:27;;;;;;;21.42;9.45;;;;;;;8.88;100.00;103458.34;4994570;28;20031;-47
2021/12/16 04:51:55;;;;;;;22.27;10.18;;;;;;;8.88;100.00;103466.19;4994294;28;20025;-48
2021/12/16 04:54:23;;;;;;;27.88;9.60;;;;;;;8.88;100.00;103460.97;4994510;28;20455;-50
2021/12/16 04:56:50;;;;;;;16.38;9.95;;;;;;;8.86;100.00;103457.41;4994088;28;20027;-48
2021/12/16 04:59:18;;;;;;;16.63;9.52;;;;;;;8.85;100.00;103461.75;4994564;28;20030;-47
2021/12/16 05:01:47;;;;;;;16.17;10.52;;;;;;;8.82;100.00;103465.94;4994337;28;20385;-47
2021/12/16 05:04:13;;;;;;;19.02;9.68;;;;;;;8.65;100.00;103436.59;4994427;28;20030;-49
2021/12/16 05:06:38;;;;;;;23.55;11.25;;;;;;;8.81;100.00;103456.34;4993941;28;20026;-47
2021/12/16 05:09:06;;;;;;;16.42;10.48;;;;;;;8.78;100.00;103458.81;4993197;28;20500;-49
2021/12/16 05:11:35;;;;;;;12.90;10.02;;;;;;;8.89;100.00;103465.34;4994296;28;20026;-50
2021/12/16 05:14:01;;;;;;;18.90;10.43;;;;;;;8.88;100.00;103476.59;4994369;28;20034;-46
2021/12/16 05:16:26;;;;;;;15.88;10.20;;;;;;;8.83;100.00;103457.31;4993950;28;20045;-47
2021/12/16 05:18:54;;;;;;;16.15;8.90;;;;;;;8.87;100.00;103469.63;4994246;28;20034;-49
2021/12/16 05:24:25;;;;;;;;;;;;;;;;;;;;;
2021/12/16 05:26:44;;;;;;;18.00;10.93;;;;;;;8.89;100.00;103467.97;4981438;28;20030;-47
2021/12/16 05:29:09;;;;;;;14.05;9.52;;;;;;;8.88;100.00;103468.78;4974529;28;20371;-47
2021/12/16 05:31:35;;;;;;;18.30;9.90;;;;;;;8.89;100.00;103470.56;4974622;28;20027;-47
2021/12/16 05:34:04;;;;;;;21.05;10.52;;;;;;;8.89;100.00;103473.19;4974655;28;20027;-46
2021/12/16 05:36:29;;;;;;;23.45;10.65;;;;;;;8.91;100.00;103471.53;4983304;28;20113;-48
2021/12/16 05:38:57;;;;;;;20.02;9.90;;;;;;;8.95;100.00;103473.44;4994010;28;20061;-46
2021/12/16 05:41:23;;;;;;;17.45;9.32;;;;;;;8.94;100.00;103474.25;4993911;28;20026;-47
2021/12/16 05:43:49;;;;;;;24.48;11.25;;;;;;;8.92;100.00;103468.97;4995363;28;20350;-47
2021/12/16 05:46:16;;;;;;;14.75;9.50;;;;;;;8.91;100.00;103476.75;4989336;28;20038;-50
2021/12/16 05:48:44;;;;;;;12.60;9.43;;;;;;;8.98;100.00;103491.81;4978100;28;20486;-48
2021/12/16 05:51:13;;;;;;;14.23;9.45;;;;;;;9.02;100.00;103490.22;4978070;28;20038;-47
2021/12/16 05:53:41;;;;;;;19.87;9.60;;;;;;;9.02;100.00;103488.50;4978149;28;20031;-47
2021/12/16 05:56:07;;;;;;;12.25;8.95;;;;;;;8.98;100.00;103494.41;4984294;28;20026;-47
2021/12/16 05:58:36;;;;;;;18.83;10.00;;;;;;;8.97;100.00;103505.66;4997387;28;20032;-47
2021/12/16 06:01:09;;;;;;;14.55;10.18;;;;;;;8.95;100.00;103509.94;4997135;28;20386;-49
2021/12/16 06:03:36;;;;;;;14.40;9.98;;;;;;;8.96;100.00;103506.47;4997440;28;20018;-49
2021/12/16 06:06:02;;;;;;;16.88;10.07;;;;;;;9.01;100.00;103504.97;4990971;28;20466;-47
2021/12/16 06:08:28;;;;;;;17.88;10.77;;;;;;;9.04;100.00;103505.06;4977683;28;20035;-48
2021/12/16 06:13:22;;;;;;;17.92;9.80;;;;;;;8.93;100.00;103508.97;4977750;28;20046;-50
2021/12/16 06:22:20;;;;;;;18.65;7.82;;;;;;;8.88;100.00;103515.72;4977654;28;20039;-47
2021/12/16 06:29:23;;;;;;;18.85;9.38;;;;;;;8.84;100.00;103517.31;4988135;28;20486;-48
2021/12/16 06:31:50;;;;;;;23.50;9.38;;;;;;;8.89;100.00;103520.09;4986926;28;20037;-47
2021/12/16 06:34:16;;;;;;;14.50;8.48;;;;;;;8.89;100.00;103520.09;4989001;28;20468;-46
2021/12/16 06:36:41;;;;;;;23.70;9.43;;;;;;;8.87;100.00;103521.78;4981428;28;20022;-47
2021/12/16 06:39:07;;;;;;;19.90;10.25;;;;;;;8.87;100.00;103527.00;5010065;28;20068;-47
2021/12/16 06:41:37;;;;;;;17.25;7.50;;;;;;;8.88;100.00;103523.53;4990362;28;20026;-47
2021/12/16 06:44:13;;;;;;;22.52;9.73;;;;;;;8.91;100.00;103534.13;4985099;28;20541;-47
2021/12/16 06:46:40;;;;;;;15.70;10.23;;;;;;;8.92;100.00;103535.88;4984583;28;20499;-48
2021/12/16 06:49:07;;;;;;;15.52;9.82;;;;;;;8.90;100.00;103527.13;4982833;28;20488;-50
2021/12/16 06:51:58;;;;;;;15.50;9.55;;;;;;;8.95;100.00;103522.97;4981342;28;20034;-49
2021/12/16 06:54:32;;;;;;;16.05;8.38;;;;;;;8.93;100.00;103532.44;4982700;28;20393;-47
2021/12/16 06:59:31;;;;;;;11.55;7.78;;;;;;;8.92;100.00;103541.09;4984659;28;20133;-47
2021/12/16 07:02:10;;;;;;;17.85;9.38;;;;;;;8.89;100.00;103541.84;4974321;28;20034;-47
2021/12/16 07:04:37;;;;;;;18.85;10.23;;;;;;;8.94;100.00;103542.06;4957141;28;20666;-49
2021/12/16 07:07:05;;;;;;;18.15;8.70;;;;;;;8.92;100.00;103546.28;4949778;28;20145;-52
2021/12/16 07:09:30;;;;;;;22.33;9.25;;;;;;;8.95;100.00;103546.44;4957056;28;20041;-49
2021/12/16 07:11:58;;;;;;;15.35;9.65;;;;;;;8.99;100.00;103553.56;4927595;28;20034;-50
2021/12/16 07:14:35;;;;;;;16.52;9.02;;;;;;;9.02;100.00;103553.69;4928675;28;20513;-49
2021/12/16 07:17:03;;;;;;;12.07;8.88;;;;;;;9.07;100.00;103552.16;4868818;28;22135;-49
2021/12/16 07:19:28;;;;;;;13.35;8.27;;;;;;;9.06;100.00;103566.03;4849252;28;21672;-48
2021/12/16 07:21:56;;;;;;;18.42;8.30;;;;;;;9.06;100.00;103560.81;4775333;28;20796;-51
2021/12/16 07:24:22;;;;;;;14.98;8.48;;;;;;;9.04;100.00;103562.44;4742439;28;20034;-49
2021/12/16 07:26:48;;;;;;;17.55;8.48;;;;;;;9.04;100.00;103572.03;4689631;28;20045;-49
2021/12/16 07:29:14;;;;;;;15.15;9.07;;;;;;;9.00;100.00;103580.53;4592837;28;20823;-52
2021/12/16 07:31:40;;;;;;;20.95;9.43;;;;;;;8.90;100.00;103569.72;4662773;28;20758;-52
2021/12/16 07:34:10;;;;;;;12.93;8.77;;;;;;;9.05;100.00;103585.09;4679170;28;20041;-49
2021/12/16 07:36:38;;;;;;;26.88;8.40;;;;;;;9.02;100.00;103590.19;4699829;28;20042;-49
2021/12/16 07:39:07;;;;;;;19.35;9.27;;;;;;;9.06;100.00;103597.31;4723050;28;20147;-49
2021/12/16 07:41:33;;;;;;;20.15;8.00;;;;;;;8.97;100.00;103594.31;4790360;28;23474;-49
2021/12/16 07:46:53;;;;;;;11.48;7.82;;;;;;;9.11;100.00;103611.47;4689016;29;20545;-49
2021/12/16 07:49:23;;;;;;;10.40;7.60;;;;;;;9.06;100.00;103618.19;4710335;29;20127;-49
2021/12/16 07:51:49;;;;;;;17.33;9.35;;;;;;;9.07;100.00;103619.97;4706382;29;20751;-50
2021/12/16 07:54:16;;;;;;;13.32;7.72;;;;;;;9.06;100.00;103622.50;4623126;29;20165;-51
2021/12/16 07:56:42;;;;;;;18.35;9.38;;;;;;;9.14;100.00;103622.00;4679395;29;20613;-52
2021/12/16 07:59:08;;;;;;;18.15;9.05;;;;;;;9.13;100.00;103625.44;4686172;29;20040;-50
2021/12/16 08:01:39;;;;;;;16.85;8.80;;;;;;;9.07;100.00;103630.41;4683083;28;20038;-52
2021/12/16 08:04:06;;;;;;;12.35;7.63;;;;;;;9.03;100.00;103633.72;4695980;28;20101;-49
2021/12/16 08:06:33;;;;;;;18.77;7.95;;;;;;;9.07;100.00;103637.34;4706016;28;20172;-49
2021/12/16 08:09:05;;;;;;;13.80;8.73;;;;;;;9.14;100.00;103637.66;4659928;28;21962;-52
2021/12/16 08:11:37;;;;;;;12.70;9.07;;;;;;;9.08;100.00;103632.16;4641988;28;21156;-52
2021/12/16 08:14:03;;;;;;;12.70;9.13;;;;;;;9.11;100.00;103647.97;4529378;28;21594;-50
2021/12/16 08:16:31;;;;;;;11.25;7.10;;;;;;;9.12;100.00;103654.06;4588099;28;21712;-52
2021/12/16 08:18:56;;;;;;;11.88;8.15;;;;;;;9.05;100.00;103641.59;4462553;28;24337;-50
2021/12/16 08:21:24;;;;;;;14.60;9.15;;;;;;;9.10;100.00;103646.19;4401397;28;21574;-51
2021/12/16 08:23:50;;;;;;;12.15;7.45;;;;;;;9.07;100.00;103650.38;4488881;28;20038;-52
2021/12/16 08:26:16;;;;;;;12.18;8.43;;;;;;;9.09;100.00;103659.16;4539883;28;20030;-49
2021/12/16 08:28:43;;;;;;;12.07;8.73;;;;;;;9.11;100.00;103653.19;4510156;23;21346;-49
2021/12/16 08:31:08;;;;;;;19.88;9.30;;;;;;;9.16;100.00;103656.84;4574188;28;20481;-49
2021/12/16 08:33:34;;;;;;;8.07;6.07;;;;;;;9.21;100.00;103665.78;4643196;28;20666;-49
2021/12/16 08:36:00;;;;;;;13.75;8.25;;;;;;;9.33;100.00;103663.69;4549114;28;20050;-50
2021/12/16 08:38:26;;;;;;;20.90;8.68;;;;;;;9.32;100.00;103664.50;4521669;28;24442;-49
2021/12/16 08:40:57;;;;;;;15.63;7.78;;;;;;;9.30;100.00;103680.94;4561615;28;20038;-50
2021/12/16 08:43:24;;;;;;;11.90;7.63;;;;;;;9.34;100.00;103678.50;4519593;28;21320;-51
2021/12/16 08:45:50;;;;;;;12.57;7.53;;;;;;;9.39;100.00;103687.41;4552588;28;20761;-51
2021/12/16 08:48:15;;;;;;;10.05;7.60;;;;;;;9.35;100.00;103669.88;4508117;28;20215;-49
2021/12/16 08:50:45;;;;;;;16.60;7.78;;;;;;;9.41;100.00;103675.31;4502873;28;21143;-52
2021/12/16 08:53:14;;;;;;;17.35;7.22;;;;;;;9.39;100.00;103676.97;4530288;28;22314;-50
2021/12/16 08:55:41;;;;;;;11.05;7.35;;;;;;;9.42;100.00;103677.13;4597757;28;23623;-52
2021/12/16 08:58:08;;;;;;;8.57;6.43;;;;;;;9.40;100.00;103683.97;4559504;28;25002;-50
2021/12/16 09:00:38;;;;;;;12.55;7.28;;;;;;;9.53;100.00;103684.47;4557364;28;25557;-52
2021/12/16 09:03:04;;;;;;;;;;;;;;;9.66;100.00;103684.16;4539006;28;21313;-49
2021/12/16 09:05:29;;;;;;;18.40;8.48;;;;;;;9.68;100.00;103679.88;4506756;28;19971;-52
2021/12/16 09:07:55;;;;;;;8.07;7.03;;;;;;;9.56;100.00;103688.09;4422500;28;23138;-49
2021/12/16 09:10:27;;;;;;;14.52;6.95;;;;;;;9.66;100.00;103684.16;4519587;28;25830;-53
2021/12/16 09:13:02;;;;;;;11.43;7.15;;;;;;;9.71;100.00;103687.84;4547171;28;21611;-49
2021/12/16 09:15:38;;;;;;;9.50;6.75;;;;;;;9.66;100.00;103692.88;4548964;28;20038;-49
2021/12/16 09:18:04;;;;;;;17.00;7.22;;;;;;;9.58;100.00;103706.44;4507665;28;20053;-49
2021/12/16 09:20:31;;;;;;;18.30;6.72;;;;;;;9.54;100.00;103702.81;4484705;28;23453;-48
2021/12/16 09:22:57;;;;;;;23.45;6.95;;;;;;;9.57;100.00;103699.44;4490551;28;23979;-48
2021/12/16 09:25:23;;;;;;;12.50;8.93;;;;;;;9.53;100.00;103701.03;4585035;28;21637;-52
2021/12/16 09:27:49;;;;;;;12.27;7.57;;;;;;;9.47;100.00;103699.91;4546452;28;20184;-48
2021/12/16 09:30:20;;;;;;;8.80;7.22;;;;;;;9.55;100.00;103703.72;4358528;28;21531;-49
2021/12/16 09:32:46;;;;;;;16.70;7.78;;;;;;;9.63;100.00;103723.19;4427968;28;20038;-49
2021/12/16 09:35:12;;;;;;;26.73;10.05;;;;;;;9.76;100.00;103726.34;4451474;28;20922;-49
2021/12/16 09:37:39;;;;;;;18.50;8.77;;;;;;;9.86;100.00;103711.97;4534365;28;21244;-50
2021/12/16 09:40:12;;;;;;;22.95;9.35;;;;;;;9.97;100.00;103721.09;4555830;28;22882;-47
2021/12/16 09:42:38;;;;;;;15.48;8.52;;;;;;;10.09;100.00;103724.22;4616471;28;22008;-51
2021/12/16 09:45:08;;;;;;;20.00;9.18;;;;;;;10.24;100.00;103727.44;4522079;28;21789;-51
2021/12/16 09:47:34;;;;;;;11.93;9.10;;;;;;;10.38;100.00;103724.47;4622501;28;20141;-50
2021/12/16 09:50:00;;;;;;;8.55;7.13;;;;;;;10.36;100.00;103712.22;4617779;28;20034;-50
2021/12/16 09:52:25;;;;;;;7.93;6.97;;;;;;;10.50;100.00;103719.72;4649534;28;20715;-50
2021/12/16 09:54:50;;;;;;;12.80;6.68;;;;;;;10.55;100.00;103728.63;4631353;28;20152;-52
2021/12/16 09:57:17;;;;;;;8.13;7.20;;;;;;;10.60;100.00;103724.44;4594801;28;20038;-49
2021/12/16 09:59:43;;;;;;;9.18;6.30;;;;;;;10.58;100.00;103718.28;4556454;28;21096;-50
2021/12/16 10:02:12;;;;;;;14.68;7.03;;;;;;;10.59;100.00;103722.69;4597597;28;23835;-49
2021/12/16 10:04:38;;;;;;;9.82;6.88;;;;;;;10.63;100.00;103732.44;4606120;28;20073;-50
2021/12/16 10:07:19;;;;;;;6.60;5.97;;;;;;;10.62;100.00;103730.63;4594618;28;22987;-52
2021/12/16 10:09:47;;;;;;;8.70;6.05;;;;;;;10.55;100.00;103728.63;4611542;28;20053;-53
2021/12/16 10:12:18;;;;;;;10.32;6.18;;;;;;;10.56;100.00;103730.38;4578200;28;24524;-52
2021/12/16 10:17:25;;;;;;;8.85;6.15;;;;;;;10.58;100.00;103728.75;4587469;28;20051;-50
2021/12/16 10:19:53;;;;;;;15.70;6.97;;;;;;;10.68;100.00;103730.84;4513962;28;20157;-53
2021/12/16 10:22:35;;;;;;;13.52;6.78;;;;;;;10.72;100.00;103743.19;4430167;28;25510;-49
2021/12/16 10:25:19;;;;;;;10.10;6.18;;;;;;;10.78;100.00;103733.88;4530617;28;22030;-50
2021/12/16 10:28:05;;;;;;;11.32;5.05;;;;;;;10.81;100.00;103735.69;4504382;28;20661;-51
2021/12/16 10:30:43;;;;;;;9.88;6.35;;;;;;;10.80;100.00;103728.69;4566403;28;20681;-50
2021/12/16 10:33:29;;;;;;;7.70;4.82;;;;;;;10.87;100.00;103725.44;4676056;28;22089;-50
2021/12/16 10:36:01;;;;;;;8.88;5.32;;;;;;;10.96;100.00;103732.75;4668921;28;20152;-52
2021/12/16 10:38:27;;;;;;;10.93;4.88;;;;;;;10.87;100.00;103717.59;4658696;28;20179;-52
2021/12/16 10:40:55;;;;;;;15.35;5.97;;;;;;;10.99;100.00;103728.50;4648623;28;22575;-52
2021/12/16 10:43:42;;;;;;;8.20;4.78;;;;;;;11.09;100.00;103728.00;4591524;28;20039;-48
2021/12/16 10:46:18;;;;;;;8.90;6.45;;;;;;;11.14;100.00;103739.53;4581410;28;20035;-49
2021/12/16 10:48:51;;;;;;;9.90;6.18;;;;;;;11.13;100.00;103727.28;4624841;28;22013;-49
2021/12/16 10:51:23;;;;;;;12.35;5.30;;;;;;;11.19;100.00;103735.34;4583057;28;20123;-50
2021/12/16 10:54:22;;;;;;;9.48;5.93;;;;;;;11.26;100.00;103734.72;4560211;28;22358;-50
2021/12/16 10:56:55;;;;;;;10.90;5.22;;;;;;;11.21;100.00;103710.13;4486697;28;20043;-50
2021/12/16 10:59:33;;;;;;;11.25;5.68;;;;;;;11.47;100.00;103736.28;4499605;28;21720;-49
2021/12/16 11:02:09;;;;;;;5.70;4.70;;;;;;;11.43;100.00;103737.00;4505740;28;22705;-49
2021/12/16 11:04:43;;;;;;;7.28;5.40;;;;;;;11.51;100.00;103740.78;4509756;28;20731;-49
2021/12/16 11:07:12;;;;;;;9.05;3.97;;;;;;;11.60;100.00;103730.63;4542485;28;20072;-49
2021/12/16 11:09:40;;;;;;;6.20;4.20;;;;;;;11.71;100.00;103739.72;4470136;28;21372;-50
2021/12/16 11:12:26;;;;;;;7.53;3.90;;;;;;;11.61;100.00;103719.31;4324635;28;20078;-49
2021/12/16 11:15:00;;;;;;;7.28;5.00;;;;;;;12.00;100.00;103733.72;4446312;28;21667;-51
2021/12/16 11:17:31;;;;;;;15.85;4.90;;;;;;;12.10;100.00;103745.41;4514286;28;20035;-49
2021/12/16 11:20:16;;;;;;;6.90;3.78;;;;;;;12.27;100.00;103732.78;4519512;28;20574;-49
2021/12/16 11:22:45;;;;;;;10.50;4.22;;;;;;;12.60;100.00;103728.56;4550474;28;20726;-52
2021/12/16 11:25:24;;;;;;;4.80;3.10;;;;;;;13.07;100.00;103741.28;4582710;28;20031;-50
2021/12/16 11:28:11;;;;;;;8.57;4.53;;;;;;;13.69;100.00;103736.81;4547817;28;21374;-50
2021/12/16 11:30:39;;;;;;;6.00;3.67;;;;;;;14.29;100.00;103731.22;4580179;28;20044;-49
2021/12/16 11:33:12;;;;;;;8.07;4.05;;;;;;;14.48;100.00;103738.69;4650780;28;20591;-49
2021/12/16 11:35:45;;;;;;;3.65;3.35;;;;;;;14.82;100.00;103745.50;4641917;28;20035;-48
2021/12/16 11:38:22;;;;;;;9.52;2.85;;;;;;;14.86;100.00;103737.72;4660917;28;20031;-51
2021/12/16 11:41:06;;;;;;;9.20;4.38;;;;;;;15.40;100.00;103729.97;4654099;28;20027;-47
2021/12/16 11:44:02;;;;;;;11.63;5.13;;;;;;;15.90;100.00;103730.81;4681312;28;20035;-49
2021/12/16 11:46:46;;;;;;;8.93;3.75;;;;;;;16.45;100.00;103731.59;4793269;28;20024;-52
2021/12/16 11:49:11;;;;;;;5.85;3.58;;;;;;;17.12;100.00;103732.44;4778430;28;20035;-50
2021/12/16 11:51:56;;;;;;;6.00;4.43;;;;;;;17.47;100.00;103736.28;4687791;28;22177;-48
2021/12/16 11:54:28;;;;;;;3.42;3.00;;;;;;;17.78;100.00;103735.69;4566027;28;20035;-49
2021/12/16 11:57:00;;;;;;;8.95;4.05;;;;;;;17.80;100.00;103733.03;4562871;28;21733;-50
2021/12/16 11:59:35;;;;;;;8.70;5.07;;;;;;;18.09;100.00;103722.66;4630998;28;20043;-48
2021/12/16 12:02:01;;;;;;;6.82;3.17;;;;;;;18.44;100.00;103713.13;4599701;28;20635;-50
2021/12/16 12:04:30;;;;;;;9.68;4.10;;;;;;;18.68;100.00;103721.22;4671953;28;20716;-50
2021/12/16 12:06:56;;;;;;;8.73;4.43;;;;;;;18.91;100.00;103723.91;4665187;28;20614;-51
2021/12/16 12:09:34;;;;;;;11.20;4.78;;;;;;;19.25;100.00;103724.88;4634993;28;21560;-50
2021/12/16 12:11:59;;;;;;;10.88;5.18;;;;;;;19.46;100.00;103711.69;4598901;28;20993;-51
2021/12/16 12:14:34;;;;;;;3.92;3.13;;;;;;;19.31;100.00;103724.03;4622463;28;20614;-52
2021/12/16 12:17:19;;;;;;;7.65;4.55;;;;;;;19.24;100.00;103725.75;4623396;28;20031;-51
2021/12/16 12:19:51;;;;;;;7.60;4.25;;;;;;;19.79;100.00;103728.44;4628224;28;20051;-49
2021/12/16 12:22:23;;;;;;;16.58;7.07;;;;;;;20.13;95.88;103723.09;4631834;28;20027;-52
2021/12/16 12:24:49;;;;;;;12.35;7.78;;;;;;;19.82;97.02;103717.84;4568534;28;20934;-50
2021/12/16 12:27:26;;;;;;;11.90;7.43;;;;;;;19.98;95.61;103730.22;4625507;28;20031;-48
2021/12/16 12:29:57;;;;;;;13.30;6.88;;;;;;;20.08;96.55;103735.47;4656193;28;20113;-51
2021/12/16 12:32:23;;;;;;;13.13;7.60;;;;;;;20.47;92.86;103731.84;4663773;28;22262;-48
2021/12/16 12:34:59;;;;;;;12.38;7.78;;;;;;;20.66;89.76;103731.78;4689527;28;20100;-48
2021/12/16 12:37:27;;;;;;;13.48;7.38;;;;;;;20.32;90.05;103729.25;4707101;28;21469;-51
2021/12/16 12:39:59;;;;;;;7.03;3.45;;;;;;;19.52;92.58;103735.53;4708745;28;20045;-52
2021/12/16 12:42:25;;;;;;;5.78;3.58;;;;;;;19.78;94.65;103732.00;4734344;28;20113;-48
2021/12/16 12:44:51;;;;;;;7.38;4.28;;;;;;;20.09;89.75;103744.34;4764169;28;20062;-50
2021/12/16 12:47:26;;;;;;;3.80;2.95;;;;;;;20.13;88.80;103725.75;4749111;28;20038;-49
2021/12/16 12:49:52;;;;;;;3.90;3.30;;;;;;;19.84;91.27;103737.28;4750573;28;21134;-52
2021/12/16 12:52:22;;;;;;;5.65;3.75;;;;;;;19.78;91.23;103724.03;4723338;28;20035;-50
2021/12/16 12:55:10;;;;;;;14.32;4.38;;;;;;;19.66;92.01;103723.19;4718942;28;20088;-48
2021/12/16 12:57:37;;;;;;;8.48;3.90;;;;;;;19.50;92.27;103699.31;4693526;28;22565;-49
2021/12/16 13:00:08;;;;;;;3.78;3.45;;;;;;;19.38;94.45;103710.78;4714459;28;20606;-48
2021/12/16 13:02:36;;;;;;;4.80;3.75;;;;;;;19.17;93.02;103716.94;4688933;28;20588;-49
2021/12/16 13:05:19;;;;;;;5.88;4.05;;;;;;;19.31;92.84;103719.56;4726295;28;20104;-52
2021/12/16 13:07:52;;;;;;;4.93;4.22;;;;;;;19.69;90.85;103707.25;4715521;28;20873;-48
2021/12/16 13:10:24;;;;;;;14.90;4.00;;;;;;;19.82;88.87;103712.53;4710940;28;21505;-50
2021/12/16 13:13:05;;;;;;;4.15;2.92;;;;;;;19.90;86.14;103705.44;4662097;28;22935;-48
2021/12/16 13:15:49;;;;;;;;;;;;;;;;;;;;;
2021/12/16 13:24:16;;;;;;;8.48;4.45;;;;;;;19.85;86.88;103720.50;4642581;28;20085;-50
2021/12/16 13:26:51;;;;;;;4.80;3.35;;;;;;;19.89;88.29;103719.59;4718875;28;20580;-53
2021/12/16 13:29:39;;;;;;;;;;;;;;;;;;;;;
2021/12/16 13:32:14;;;;;;;7.97;4.45;;;;;;;19.55;89.42;103709.00;4713528;28;20098;-50
2021/12/16 13:34:50;;;;;;;4.88;3.42;;;;;;;19.65;87.68;103713.44;4724466;28;20977;-50
2021/12/16 13:37:37;;;;;;;8.23;3.70;;;;;;;19.65;89.83;103686.91;4746484;28;20757;-52
2021/12/16 13:40:17;;;;;;;5.65;4.30;;;;;;;20.57;84.36;103722.97;4734809;28;20907;-48
2021/12/16 13:43:12;;;;;;;2.97;1.95;;;;;;;20.18;86.93;103712.47;4740729;28;22534;-49
2021/12/16 13:45:58;;;;;;;8.38;5.28;;;;;;;19.96;87.05;103726.66;4752831;28;20069;-51
2021/12/16 14:02:55;;;;;;;1999.90;999.90;;;;;;;18.96;90.65;103726.59;4687985;28;20826;-51
2021/12/16 14:05:39;;;;;;;243.93;230.23;;;;;;;18.95;89.12;103715.09;4706875;28;20113;-49
2021/12/16 14:08:08;;;;;;;1999.90;999.90;;;;;;;19.13;87.75;103715.16;4656987;28;20047;-52
2021/12/16 14:10:46;;;;;;;0.00;0.00;;;;;;;19.10;89.32;103708.97;4678553;28;21207;-47
2021/12/16 14:35:40;;;;;;;124.35;24.17;;;;;;;17.30;99.74;103727.31;4857379;28;20070;-50
2021/12/16 14:38:24;;;;;;;6.25;3.05;;;;;;;16.79;100.00;103728.53;4863810;28;20216;-48
2021/12/16 14:43:38;;;;;;;6.28;2.53;;;;;;;15.41;100.00;103723.81;4847637;28;20038;-49
2021/12/16 14:46:06;;;;;;;4.70;3.00;;;;;;;14.97;100.00;103720.38;4847805;28;20220;-51
2021/12/16 14:48:35;;;;;;;6.55;3.17;;;;;;;14.66;100.00;103718.00;4817214;28;21513;-47
2021/12/16 14:51:10;;;;;;;4.10;3.25;;;;;;;14.51;100.00;103717.69;4811194;28;20132;-49
2021/12/16 14:53:41;;;;;;;6.47;3.58;;;;;;;14.57;100.00;103718.69;4823287;28;20034;-51